Rye Patch, Nevada
Current Conditions -  °F | °C
As of 12:53 PM on Sunday 23 Nov 2014 (Local Time) from KLOL Reporting Station
Clear Clear  
Wind Chill: 41°   Ceiling: Unl
Heat Index: 45°   Visibility: 10mi
Dew Point: 25°   Wind: 7mph
Humidity: 46%   Direction: 200°SSW
Pressure: 30.33"   Gusts: NA
Location:  40.3545°N, 118.628°W
Report Text: KLOL 232053Z AUTO 20006KT 10SM CLR 07/M04 A3033 RMK AO2 SLP282 T00721039 58022
Loading
Personal Weather Stations






























Interactive Weather Map New forecast layout! Learn more

10-Day Weather Forecast

Advertisements
Track Severe Weather on mobile